sensor_id;sensor_type;location;lat;lon;timestamp;temperature;humidity
12948;DHT22;6539;49.476;8.484;2023-06-10T00:01:53;24.40;93.10
12948;DHT22;6539;49.476;8.484;2023-06-10T00:04:23;24.30;93.00
12948;DHT22;6539;49.476;8.484;2023-06-10T00:06:52;24.30;92.90
12948;DHT22;6539;49.476;8.484;2023-06-10T00:09:19;24.40;92.80
12948;DHT22;6539;49.476;8.484;2023-06-10T00:11:47;24.40;92.60
12948;DHT22;6539;49.476;8.484;2023-06-10T00:14:15;24.40;92.60
12948;DHT22;6539;49.476;8.484;2023-06-10T00:16:43;24.40;92.50
12948;DHT22;6539;49.476;8.484;2023-06-10T00:19:10;24.40;92.60
12948;DHT22;6539;49.476;8.484;2023-06-10T00:21:41;24.40;92.30
12948;DHT22;6539;49.476;8.484;2023-06-10T00:24:12;24.40;92.30
12948;DHT22;6539;49.476;8.484;2023-06-10T00:26:39;24.40;92.30
12948;DHT22;6539;49.476;8.484;2023-06-10T00:29:08;24.40;92.30
12948;DHT22;6539;49.476;8.484;2023-06-10T00:31:37;24.40;92.30
12948;DHT22;6539;49.476;8.484;2023-06-10T00:34:08;24.50;92.60
12948;DHT22;6539;49.476;8.484;2023-06-10T00:36:36;24.50;92.60
12948;DHT22;6539;49.476;8.484;2023-06-10T00:39:02;24.50;92.70
12948;DHT22;6539;49.476;8.484;2023-06-10T00:41:31;24.50;92.90
12948;DHT22;6539;49.476;8.484;2023-06-10T00:44:00;24.40;93.00
12948;DHT22;6539;49.476;8.484;2023-06-10T00:46:28;24.40;93.20
12948;DHT22;6539;49.476;8.484;2023-06-10T00:48:56;24.30;93.40
12948;DHT22;6539;49.476;8.484;2023-06-10T00:51:22;24.30;93.60
12948;DHT22;6539;49.476;8.484;2023-06-10T00:53:52;24.20;93.70
12948;DHT22;6539;49.476;8.484;2023-06-10T00:56:20;24.30;93.80
12948;DHT22;6539;49.476;8.484;2023-06-10T00:58:47;24.20;93.90
12948;DHT22;6539;49.476;8.484;2023-06-10T01:01:13;24.10;94.10
12948;DHT22;6539;49.476;8.484;2023-06-10T01:03:39;24.10;94.20
12948;DHT22;6539;49.476;8.484;2023-06-10T01:11:47;23.90;94.60
12948;DHT22;6539;49.476;8.484;2023-06-10T01:14:17;23.80;94.90
12948;DHT22;6539;49.476;8.484;2023-06-10T01:16:44;23.90;97.70
12948;DHT22;6539;49.476;8.484;2023-06-10T01:19:11;23.70;95.10
12948;DHT22;6539;49.476;8.484;2023-06-10T01:21:40;23.70;95.20
12948;DHT22;6539;49.476;8.484;2023-06-10T01:24:08;23.60;95.20
12948;DHT22;6539;49.476;8.484;2023-06-10T01:26:36;23.60;95.40
12948;DHT22;6539;49.476;8.484;2023-06-10T01:29:20;23.60;95.50
12948;DHT22;6539;49.476;8.484;2023-06-10T01:31:58;23.60;95.60
12948;DHT22;6539;49.476;8.484;2023-06-10T01:34:31;23.60;95.60
12948;DHT22;6539;49.476;8.484;2023-06-10T01:36:58;23.60;95.50
12948;DHT22;6539;49.476;8.484;2023-06-10T01:39:27;23.50;95.50
12948;DHT22;6539;49.476;8.484;2023-06-10T01:41:57;23.50;95.60
12948;DHT22;6539;49.476;8.484;2023-06-10T01:44:27;23.60;95.70
12948;DHT22;6539;49.476;8.484;2023-06-10T01:46:55;23.60;95.70
12948;DHT22;6539;49.476;8.484;2023-06-10T01:49:21;23.50;95.70
12948;DHT22;6539;49.476;8.484;2023-06-10T01:51:49;23.80;98.60
12948;DHT22;6539;49.476;8.484;2023-06-10T01:54:15;23.60;95.90
12948;DHT22;6539;49.476;8.484;2023-06-10T01:56:43;23.50;96.10
12948;DHT22;6539;49.476;8.484;2023-06-10T01:59:08;23.40;96.20
12948;DHT22;6539;49.476;8.484;2023-06-10T02:01:34;23.40;96.30
12948;DHT22;6539;49.476;8.484;2023-06-10T02:04:00;23.30;96.40
12948;DHT22;6539;49.476;8.484;2023-06-10T02:06:28;23.30;96.50
12948;DHT22;6539;49.476;8.484;2023-06-10T02:08:53;23.30;96.70
12948;DHT22;6539;49.476;8.484;2023-06-10T02:11:19;23.20;96.70
12948;DHT22;6539;49.476;8.484;2023-06-10T02:13:47;23.20;97.00
12948;DHT22;6539;49.476;8.484;2023-06-10T02:16:18;23.20;97.00
12948;DHT22;6539;49.476;8.484;2023-06-10T02:18:46;23.20;97.10
12948;DHT22;6539;49.476;8.484;2023-06-10T02:21:14;23.20;97.20
12948;DHT22;6539;49.476;8.484;2023-06-10T02:23:42;23.20;97.20
12948;DHT22;6539;49.476;8.484;2023-06-10T02:26:10;23.20;97.30
12948;DHT22;6539;49.476;8.484;2023-06-10T02:28:36;23.20;97.60
12948;DHT22;6539;49.476;8.484;2023-06-10T02:31:01;23.10;99.90
12948;DHT22;6539;49.476;8.484;2023-06-10T02:33:27;23.20;97.80
12948;DHT22;6539;49.476;8.484;2023-06-10T02:35:53;23.20;98.00
12948;DHT22;6539;49.476;8.484;2023-06-10T02:38:20;23.30;98.10
12948;DHT22;6539;49.476;8.484;2023-06-10T02:40:46;23.20;98.00
12948;DHT22;6539;49.476;8.484;2023-06-10T02:43:12;23.20;98.20
12948;DHT22;6539;49.476;8.484;2023-06-10T02:45:38;23.20;98.30
12948;DHT22;6539;49.476;8.484;2023-06-10T02:48:03;23.20;98.30
12948;DHT22;6539;49.476;8.484;2023-06-10T02:50:32;23.20;98.40
12948;DHT22;6539;49.476;8.484;2023-06-10T02:52:58;23.10;98.60
12948;DHT22;6539;49.476;8.484;2023-06-10T02:55:23;23.10;98.70
12948;DHT22;6539;49.476;8.484;2023-06-10T02:57:52;23.10;98.70
12948;DHT22;6539;49.476;8.484;2023-06-10T03:00:22;23.10;98.90
12948;DHT22;6539;49.476;8.484;2023-06-10T03:02:51;23.00;98.90
12948;DHT22;6539;49.476;8.484;2023-06-10T03:05:16;23.00;99.00
12948;DHT22;6539;49.476;8.484;2023-06-10T03:07:45;23.00;99.30
12948;DHT22;6539;49.476;8.484;2023-06-10T03:10:13;23.30;99.90
12948;DHT22;6539;49.476;8.484;2023-06-10T03:12:41;23.00;99.20
12948;DHT22;6539;49.476;8.484;2023-06-10T03:15:07;23.00;99.00
12948;DHT22;6539;49.476;8.484;2023-06-10T03:17:37;23.00;99.30
12948;DHT22;6539;49.476;8.484;2023-06-10T03:20:06;23.00;99.50
12948;DHT22;6539;49.476;8.484;2023-06-10T03:22:34;23.00;99.60
12948;DHT22;6539;49.476;8.484;2023-06-10T03:25:00;23.00;99.80
12948;DHT22;6539;49.476;8.484;2023-06-10T03:27:26;22.90;99.90
12948;DHT22;6539;49.476;8.484;2023-06-10T03:29:57;22.90;99.90
12948;DHT22;6539;49.476;8.484;2023-06-10T03:32:28;23.00;99.90
12948;DHT22;6539;49.476;8.484;2023-06-10T03:34:54;22.80;99.90
12948;DHT22;6539;49.476;8.484;2023-06-10T03:37:22;22.60;99.90
12948;DHT22;6539;49.476;8.484;2023-06-10T03:39:51;22.60;99.90
12948;DHT22;6539;49.476;8.484;2023-06-10T03:42:16;22.60;99.90
12948;DHT22;6539;49.476;8.484;2023-06-10T03:44:42;22.70;99.90
12948;DHT22;6539;49.476;8.484;2023-06-10T03:47:08;22.60;99.90
12948;DHT22;6539;49.476;8.484;2023-06-10T03:49:33;22.50;99.90
12948;DHT22;6539;49.476;8.484;2023-06-10T03:52:02;22.50;99.90
12948;DHT22;6539;49.476;8.484;2023-06-10T03:54:28;22.40;99.90
12948;DHT22;6539;49.476;8.484;2023-06-10T03:56:54;22.40;99.90
12948;DHT22;6539;49.476;8.484;2023-06-10T03:59:22;22.40;99.90
12948;DHT22;6539;49.476;8.484;2023-06-10T04:01:47;22.40;99.90
12948;DHT22;6539;49.476;8.484;2023-06-10T04:04:16;22.40;99.90
12948;DHT22;6539;49.476;8.484;2023-06-10T04:06:42;22.40;99.90
12948;DHT22;6539;49.476;8.484;2023-06-10T04:09:11;22.40;99.90
12948;DHT22;6539;49.476;8.484;2023-06-10T04:11:42;22.30;99.90
12948;DHT22;6539;49.476;8.484;2023-06-10T04:14:08;22.30;99.90
12948;DHT22;6539;49.476;8.484;2023-06-10T04:16:34;22.30;99.90
12948;DHT22;6539;49.476;8.484;2023-06-10T04:19:01;22.20;99.90
12948;DHT22;6539;49.476;8.484;2023-06-10T04:21:27;22.20;99.90
12948;DHT22;6539;49.476;8.484;2023-06-10T04:23:57;22.30;99.90
12948;DHT22;6539;49.476;8.484;2023-06-10T04:26:28;22.30;99.90
12948;DHT22;6539;49.476;8.484;2023-06-10T04:28:53;22.40;99.90
12948;DHT22;6539;49.476;8.484;2023-06-10T04:31:22;22.40;99.90
12948;DHT22;6539;49.476;8.484;2023-06-10T04:33:50;22.40;99.90
12948;DHT22;6539;49.476;8.484;2023-06-10T04:36:20;22.40;99.90
12948;DHT22;6539;49.476;8.484;2023-06-10T04:38:49;22.50;99.90
12948;DHT22;6539;49.476;8.484;2023-06-10T04:41:19;22.50;99.90
12948;DHT22;6539;49.476;8.484;2023-06-10T04:43:45;22.50;99.90
12948;DHT22;6539;49.476;8.484;2023-06-10T04:46:18;22.40;99.90
12948;DHT22;6539;49.476;8.484;2023-06-10T04:48:45;22.50;99.90
12948;DHT22;6539;49.476;8.484;2023-06-10T04:53:39;22.50;99.90
12948;DHT22;6539;49.476;8.484;2023-06-10T04:56:07;22.60;99.90
12948;DHT22;6539;49.476;8.484;2023-06-10T04:58:36;22.50;99.90
12948;DHT22;6539;49.476;8.484;2023-06-10T05:01:02;22.70;99.90
12948;DHT22;6539;49.476;8.484;2023-06-10T05:03:32;22.70;99.90
12948;DHT22;6539;49.476;8.484;2023-06-10T05:05:58;22.80;99.90
12948;DHT22;6539;49.476;8.484;2023-06-10T05:08:23;22.90;99.90
12948;DHT22;6539;49.476;8.484;2023-06-10T05:10:49;22.80;99.90
12948;DHT22;6539;49.476;8.484;2023-06-10T05:13:16;22.90;99.90
12948;DHT22;6539;49.476;8.484;2023-06-10T05:15:45;22.80;99.90
12948;DHT22;6539;49.476;8.484;2023-06-10T05:18:12;23.10;99.90
12948;DHT22;6539;49.476;8.484;2023-06-10T05:20:40;23.10;99.90
12948;DHT22;6539;49.476;8.484;2023-06-10T05:23:10;23.00;99.90
12948;DHT22;6539;49.476;8.484;2023-06-10T05:25:36;23.00;99.90
12948;DHT22;6539;49.476;8.484;2023-06-10T05:28:02;23.00;99.90
12948;DHT22;6539;49.476;8.484;2023-06-10T05:30:28;23.00;99.90
12948;DHT22;6539;49.476;8.484;2023-06-10T05:32:56;23.10;99.90
12948;DHT22;6539;49.476;8.484;2023-06-10T05:35:24;23.10;99.90
12948;DHT22;6539;49.476;8.484;2023-06-10T05:37:50;23.20;99.90
12948;DHT22;6539;49.476;8.484;2023-06-10T05:40:18;23.30;99.90
12948;DHT22;6539;49.476;8.484;2023-06-10T05:42:46;23.40;99.90
12948;DHT22;6539;49.476;8.484;2023-06-10T05:45:12;23.50;99.90
12948;DHT22;6539;49.476;8.484;2023-06-10T05:47:38;23.60;99.90
12948;DHT22;6539;49.476;8.484;2023-06-10T05:50:04;23.60;99.90
12948;DHT22;6539;49.476;8.484;2023-06-10T05:52:35;23.80;99.90
12948;DHT22;6539;49.476;8.484;2023-06-10T05:55:02;23.90;99.90
12948;DHT22;6539;49.476;8.484;2023-06-10T05:57:29;24.00;99.90
12948;DHT22;6539;49.476;8.484;2023-06-10T05:59:55;24.10;99.90
12948;DHT22;6539;49.476;8.484;2023-06-10T06:02:20;24.10;99.90
12948;DHT22;6539;49.476;8.484;2023-06-10T06:04:46;24.20;99.90
12948;DHT22;6539;49.476;8.484;2023-06-10T06:07:12;24.30;99.90
12948;DHT22;6539;49.476;8.484;2023-06-10T06:09:38;24.40;99.90
12948;DHT22;6539;49.476;8.484;2023-06-10T06:12:06;24.40;99.90
12948;DHT22;6539;49.476;8.484;2023-06-10T06:14:37;24.40;99.90
12948;DHT22;6539;49.476;8.484;2023-06-10T06:17:05;24.50;99.90
12948;DHT22;6539;49.476;8.484;2023-06-10T06:19:32;24.50;99.90
12948;DHT22;6539;49.476;8.484;2023-06-10T06:22:00;24.60;99.90
12948;DHT22;6539;49.476;8.484;2023-06-10T06:24:26;24.60;99.90
12948;DHT22;6539;49.476;8.484;2023-06-10T06:26:54;24.70;99.90
12948;DHT22;6539;49.476;8.484;2023-06-10T06:29:22;25.00;99.90
12948;DHT22;6539;49.476;8.484;2023-06-10T06:31:48;24.80;99.90
12948;DHT22;6539;49.476;8.484;2023-06-10T06:34:18;24.90;99.90
12948;DHT22;6539;49.476;8.484;2023-06-10T06:36:46;25.00;99.90
12948;DHT22;6539;49.476;8.484;2023-06-10T06:39:12;25.10;99.90
12948;DHT22;6539;49.476;8.484;2023-06-10T06:41:40;25.40;99.90
12948;DHT22;6539;49.476;8.484;2023-06-10T06:44:08;25.30;99.90
12948;DHT22;6539;49.476;8.484;2023-06-10T06:46:34;25.40;99.90
12948;DHT22;6539;49.476;8.484;2023-06-10T06:49:02;25.50;99.90
12948;DHT22;6539;49.476;8.484;2023-06-10T06:51:27;25.60;99.90
12948;DHT22;6539;49.476;8.484;2023-06-10T06:53:55;25.70;99.90
12948;DHT22;6539;49.476;8.484;2023-06-10T06:56:24;26.00;99.90
12948;DHT22;6539;49.476;8.484;2023-06-10T06:58:51;26.30;99.90
12948;DHT22;6539;49.476;8.484;2023-06-10T07:01:19;26.50;99.90
12948;DHT22;6539;49.476;8.484;2023-06-10T07:03:45;26.80;99.50
12948;DHT22;6539;49.476;8.484;2023-06-10T07:06:12;27.00;98.10
12948;DHT22;6539;49.476;8.484;2023-06-10T07:08:43;27.10;98.00
12948;DHT22;6539;49.476;8.484;2023-06-10T07:11:11;27.30;97.50
12948;DHT22;6539;49.476;8.484;2023-06-10T07:13:37;27.50;96.90
12948;DHT22;6539;49.476;8.484;2023-06-10T07:16:06;27.80;96.70
12948;DHT22;6539;49.476;8.484;2023-06-10T07:18:32;28.10;95.70
12948;DHT22;6539;49.476;8.484;2023-06-10T07:20:58;28.20;94.80
12948;DHT22;6539;49.476;8.484;2023-06-10T07:23:28;28.40;94.30
12948;DHT22;6539;49.476;8.484;2023-06-10T07:26:01;28.70;93.80
12948;DHT22;6539;49.476;8.484;2023-06-10T07:28:27;28.70;92.70
12948;DHT22;6539;49.476;8.484;2023-06-10T07:30:56;28.80;92.60
12948;DHT22;6539;49.476;8.484;2023-06-10T07:33:26;29.10;91.80
12948;DHT22;6539;49.476;8.484;2023-06-10T07:35:52;29.10;91.40
12948;DHT22;6539;49.476;8.484;2023-06-10T07:38:20;29.30;90.90
12948;DHT22;6539;49.476;8.484;2023-06-10T07:40:46;29.40;90.60
12948;DHT22;6539;49.476;8.484;2023-06-10T07:43:12;29.60;90.40
12948;DHT22;6539;49.476;8.484;2023-06-10T07:45:41;29.90;89.80
12948;DHT22;6539;49.476;8.484;2023-06-10T07:48:07;29.60;89.50
12948;DHT22;6539;49.476;8.484;2023-06-10T07:50:33;29.70;88.70
12948;DHT22;6539;49.476;8.484;2023-06-10T07:53:01;29.80;88.50
12948;DHT22;6539;49.476;8.484;2023-06-10T07:55:29;29.70;88.20
12948;DHT22;6539;49.476;8.484;2023-06-10T07:57:55;29.80;87.80
12948;DHT22;6539;49.476;8.484;2023-06-10T08:00:24;29.60;87.50
12948;DHT22;6539;49.476;8.484;2023-06-10T08:02:52;29.60;86.80
12948;DHT22;6539;49.476;8.484;2023-06-10T08:05:21;29.70;87.10
12948;DHT22;6539;49.476;8.484;2023-06-10T08:07:46;29.90;86.90
12948;DHT22;6539;49.476;8.484;2023-06-10T08:10:12;29.80;86.80
12948;DHT22;6539;49.476;8.484;2023-06-10T08:12:40;29.90;86.80
12948;DHT22;6539;49.476;8.484;2023-06-10T08:15:09;29.80;86.50
12948;DHT22;6539;49.476;8.484;2023-06-10T08:17:37;29.60;86.70
12948;DHT22;6539;49.476;8.484;2023-06-10T08:20:06;29.70;86.50
12948;DHT22;6539;49.476;8.484;2023-06-10T08:22:34;29.80;85.70
12948;DHT22;6539;49.476;8.484;2023-06-10T08:25:00;30.00;86.00
12948;DHT22;6539;49.476;8.484;2023-06-10T08:27:26;30.10;85.10
12948;DHT22;6539;49.476;8.484;2023-06-10T08:29:52;30.40;85.10
12948;DHT22;6539;49.476;8.484;2023-06-10T08:32:17;30.90;87.00
12948;DHT22;6539;49.476;8.484;2023-06-10T08:34:43;30.90;83.20
12948;DHT22;6539;49.476;8.484;2023-06-10T08:37:13;31.10;82.90
12948;DHT22;6539;49.476;8.484;2023-06-10T08:39:39;31.20;82.00
12948;DHT22;6539;49.476;8.484;2023-06-10T08:42:34;31.50;81.60
12948;DHT22;6539;49.476;8.484;2023-06-10T08:45:12;31.60;80.10
12948;DHT22;6539;49.476;8.484;2023-06-10T08:47:45;31.70;80.10
12948;DHT22;6539;49.476;8.484;2023-06-10T08:50:14;31.80;79.00
12948;DHT22;6539;49.476;8.484;2023-06-10T08:52:43;31.70;78.80
12948;DHT22;6539;49.476;8.484;2023-06-10T08:55:18;31.50;78.10
12948;DHT22;6539;49.476;8.484;2023-06-10T08:57:51;31.60;78.60
12948;DHT22;6539;49.476;8.484;2023-06-10T09:00:20;31.70;78.20
12948;DHT22;6539;49.476;8.484;2023-06-10T09:02:49;31.90;77.40
12948;DHT22;6539;49.476;8.484;2023-06-10T09:05:18;31.00;76.00
12948;DHT22;6539;49.476;8.484;2023-06-10T09:07:45;31.90;77.30
12948;DHT22;6539;49.476;8.484;2023-06-10T09:10:13;32.20;76.00
12948;DHT22;6539;49.476;8.484;2023-06-10T09:12:39;32.30;75.80
12948;DHT22;6539;49.476;8.484;2023-06-10T09:15:06;32.40;75.40
12948;DHT22;6539;49.476;8.484;2023-06-10T09:17:33;32.40;76.00
12948;DHT22;6539;49.476;8.484;2023-06-10T09:20:02;32.50;77.40
12948;DHT22;6539;49.476;8.484;2023-06-10T09:22:28;32.50;77.30
12948;DHT22;6539;49.476;8.484;2023-06-10T09:25:08;32.50;77.70
12948;DHT22;6539;49.476;8.484;2023-06-10T09:27:51;32.70;76.90
12948;DHT22;6539;49.476;8.484;2023-06-10T09:30:29;32.70;76.90
12948;DHT22;6539;49.476;8.484;2023-06-10T09:33:02;32.40;77.10
12948;DHT22;6539;49.476;8.484;2023-06-10T09:35:48;32.30;77.20
12948;DHT22;6539;49.476;8.484;2023-06-10T09:38:19;32.30;77.40
12948;DHT22;6539;49.476;8.484;2023-06-10T09:40:54;32.10;78.40
12948;DHT22;6539;49.476;8.484;2023-06-10T09:43:22;32.10;79.40
12948;DHT22;6539;49.476;8.484;2023-06-10T09:45:50;32.20;81.80
12948;DHT22;6539;49.476;8.484;2023-06-10T09:48:19;32.30;79.00
12948;DHT22;6539;49.476;8.484;2023-06-10T09:50:45;32.30;78.20
12948;DHT22;6539;49.476;8.484;2023-06-10T09:53:12;31.80;78.50
12948;DHT22;6539;49.476;8.484;2023-06-10T09:55:41;31.70;79.80
12948;DHT22;6539;49.476;8.484;2023-06-10T09:58:07;31.30;83.20
12948;DHT22;6539;49.476;8.484;2023-06-10T10:00:34;31.30;84.30
12948;DHT22;6539;49.476;8.484;2023-06-10T10:03:00;31.10;80.90
12948;DHT22;6539;49.476;8.484;2023-06-10T10:05:27;31.10;81.10
12948;DHT22;6539;49.476;8.484;2023-06-10T10:07:53;31.10;81.10
12948;DHT22;6539;49.476;8.484;2023-06-10T10:10:24;30.90;84.30
12948;DHT22;6539;49.476;8.484;2023-06-10T10:12:55;30.80;80.10
12948;DHT22;6539;49.476;8.484;2023-06-10T10:15:21;30.70;80.60
12948;DHT22;6539;49.476;8.484;2023-06-10T10:17:52;30.70;81.50
12948;DHT22;6539;49.476;8.484;2023-06-10T10:20:26;30.70;80.80
12948;DHT22;6539;49.476;8.484;2023-06-10T10:22:57;30.90;80.90
12948;DHT22;6539;49.476;8.484;2023-06-10T10:25:28;31.00;80.20
12948;DHT22;6539;49.476;8.484;2023-06-10T10:28:08;31.00;80.70
12948;DHT22;6539;49.476;8.484;2023-06-10T10:30:40;30.90;77.50
12948;DHT22;6539;49.476;8.484;2023-06-10T10:33:13;31.20;70.40
12948;DHT22;6539;49.476;8.484;2023-06-10T10:35:46;31.20;71.00
12948;DHT22;6539;49.476;8.484;2023-06-10T10:38:17;31.10;70.10
12948;DHT22;6539;49.476;8.484;2023-06-10T10:40:44;31.10;70.00
12948;DHT22;6539;49.476;8.484;2023-06-10T10:43:17;31.20;69.30
12948;DHT22;6539;49.476;8.484;2023-06-10T10:45:46;31.30;68.50
12948;DHT22;6539;49.476;8.484;2023-06-10T10:48:23;31.30;68.20
12948;DHT22;6539;49.476;8.484;2023-06-10T10:50:58;31.10;69.50
12948;DHT22;6539;49.476;8.484;2023-06-10T10:53:24;31.00;69.60
12948;DHT22;6539;49.476;8.484;2023-06-10T10:56:19;31.00;68.90
12948;DHT22;6539;49.476;8.484;2023-06-10T10:59:05;31.10;67.60
12948;DHT22;6539;49.476;8.484;2023-06-10T11:01:46;31.30;67.80
12948;DHT22;6539;49.476;8.484;2023-06-10T11:04:17;31.60;67.40
12948;DHT22;6539;49.476;8.484;2023-06-10T11:06:56;31.70;67.10
12948;DHT22;6539;49.476;8.484;2023-06-10T11:09:31;31.70;66.20
12948;DHT22;6539;49.476;8.484;2023-06-10T11:11:58;31.40;65.90
12948;DHT22;6539;49.476;8.484;2023-06-10T11:14:30;31.40;65.70
12948;DHT22;6539;49.476;8.484;2023-06-10T11:17:18;31.20;64.80
12948;DHT22;6539;49.476;8.484;2023-06-10T11:19:46;31.20;65.80
12948;DHT22;6539;49.476;8.484;2023-06-10T11:22:17;31.20;64.90
12948;DHT22;6539;49.476;8.484;2023-06-10T11:24:48;31.50;64.40
12948;DHT22;6539;49.476;8.484;2023-06-10T11:27:21;31.70;64.30
12948;DHT22;6539;49.476;8.484;2023-06-10T11:29:57;31.70;64.40
12948;DHT22;6539;49.476;8.484;2023-06-10T11:32:33;31.50;64.90
12948;DHT22;6539;49.476;8.484;2023-06-10T11:35:03;31.50;65.10
12948;DHT22;6539;49.476;8.484;2023-06-10T11:37:32;32.00;68.60
12948;DHT22;6539;49.476;8.484;2023-06-10T11:39:58;32.10;65.70
12948;DHT22;6539;49.476;8.484;2023-06-10T11:42:24;32.10;65.40
12948;DHT22;6539;49.476;8.484;2023-06-10T11:44:52;32.10;65.50
12948;DHT22;6539;49.476;8.484;2023-06-10T11:47:19;31.90;65.50
12948;DHT22;6539;49.476;8.484;2023-06-10T11:49:56;31.80;65.80
12948;DHT22;6539;49.476;8.484;2023-06-10T11:52:31;31.90;65.70
12948;DHT22;6539;49.476;8.484;2023-06-10T11:55:09;32.00;64.90
12948;DHT22;6539;49.476;8.484;2023-06-10T11:57:39;32.10;64.40
12948;DHT22;6539;49.476;8.484;2023-06-10T12:00:07;32.10;64.60
12948;DHT22;6539;49.476;8.484;2023-06-10T12:02:34;32.40;65.20
12948;DHT22;6539;49.476;8.484;2023-06-10T12:05:12;32.30;65.00
12948;DHT22;6539;49.476;8.484;2023-06-10T12:07:38;32.30;64.90
12948;DHT22;6539;49.476;8.484;2023-06-10T12:10:04;32.50;64.80
12948;DHT22;6539;49.476;8.484;2023-06-10T12:12:36;32.50;64.70
12948;DHT22;6539;49.476;8.484;2023-06-10T12:15:02;32.20;63.50
12948;DHT22;6539;49.476;8.484;2023-06-10T12:19:57;32.20;64.10
12948;DHT22;6539;49.476;8.484;2023-06-10T12:22:26;32.30;64.40
12948;DHT22;6539;49.476;8.484;2023-06-10T12:25:01;32.50;63.80
12948;DHT22;6539;49.476;8.484;2023-06-10T12:27:29;32.50;63.60
12948;DHT22;6539;49.476;8.484;2023-06-10T12:30:00;32.20;63.40
12948;DHT22;6539;49.476;8.484;2023-06-10T12:32:44;31.90;63.90
12948;DHT22;6539;49.476;8.484;2023-06-10T12:35:12;31.80;63.70
12948;DHT22;6539;49.476;8.484;2023-06-10T12:38:17;31.40;63.50
12948;DHT22;6539;49.476;8.484;2023-06-10T12:40:47;31.30;63.70
12948;DHT22;6539;49.476;8.484;2023-06-10T12:43:18;31.30;63.80
12948;DHT22;6539;49.476;8.484;2023-06-10T12:45:47;31.20;64.70
12948;DHT22;6539;49.476;8.484;2023-06-10T12:48:20;30.90;68.90
12948;DHT22;6539;49.476;8.484;2023-06-10T12:50:55;31.00;65.30
12948;DHT22;6539;49.476;8.484;2023-06-10T12:53:25;31.10;65.10
12948;DHT22;6539;49.476;8.484;2023-06-10T12:55:56;31.40;65.30
12948;DHT22;6539;49.476;8.484;2023-06-10T12:58:25;31.40;65.90
12948;DHT22;6539;49.476;8.484;2023-06-10T13:00:52;31.40;65.90
12948;DHT22;6539;49.476;8.484;2023-06-10T13:03:18;31.40;65.60
12948;DHT22;6539;49.476;8.484;2023-06-10T13:05:44;31.20;65.80
12948;DHT22;6539;49.476;8.484;2023-06-10T13:08:12;31.10;65.30
12948;DHT22;6539;49.476;8.484;2023-06-10T13:10:38;31.10;65.70
12948;DHT22;6539;49.476;8.484;2023-06-10T13:13:06;31.10;65.60
12948;DHT22;6539;49.476;8.484;2023-06-10T13:15:36;31.00;65.60
12948;DHT22;6539;49.476;8.484;2023-06-10T13:18:05;31.00;70.10
12948;DHT22;6539;49.476;8.484;2023-06-10T13:20:31;31.00;69.10
12948;DHT22;6539;49.476;8.484;2023-06-10T13:23:01;31.10;68.40
12948;DHT22;6539;49.476;8.484;2023-06-10T13:25:29;31.20;65.00
12948;DHT22;6539;49.476;8.484;2023-06-10T13:27:57;31.30;68.00
12948;DHT22;6539;49.476;8.484;2023-06-10T13:30:23;31.20;64.80
12948;DHT22;6539;49.476;8.484;2023-06-10T13:32:49;31.10;64.50
12948;DHT22;6539;49.476;8.484;2023-06-10T13:35:15;31.10;64.60
12948;DHT22;6539;49.476;8.484;2023-06-10T13:37:40;31.20;68.80
12948;DHT22;6539;49.476;8.484;2023-06-10T13:40:06;30.90;65.30
12948;DHT22;6539;49.476;8.484;2023-06-10T13:42:33;30.80;65.40
12948;DHT22;6539;49.476;8.484;2023-06-10T13:45:04;31.00;68.40
12948;DHT22;6539;49.476;8.484;2023-06-10T13:47:31;30.80;64.80
12948;DHT22;6539;49.476;8.484;2023-06-10T13:49:59;30.90;65.10
12948;DHT22;6539;49.476;8.484;2023-06-10T13:52:25;31.10;64.80
12948;DHT22;6539;49.476;8.484;2023-06-10T13:54:56;31.30;64.40
12948;DHT22;6539;49.476;8.484;2023-06-10T13:57:21;31.50;63.70
12948;DHT22;6539;49.476;8.484;2023-06-10T13:59:50;31.50;64.20
12948;DHT22;6539;49.476;8.484;2023-06-10T14:02:19;31.50;64.00
12948;DHT22;6539;49.476;8.484;2023-06-10T14:04:45;31.70;67.70
12948;DHT22;6539;49.476;8.484;2023-06-10T14:07:12;31.70;63.40
12948;DHT22;6539;49.476;8.484;2023-06-10T14:09:43;31.70;63.90
12948;DHT22;6539;49.476;8.484;2023-06-10T14:12:12;31.90;63.90
12948;DHT22;6539;49.476;8.484;2023-06-10T14:14:38;31.80;63.00
12948;DHT22;6539;49.476;8.484;2023-06-10T14:17:04;31.10;66.00
12948;DHT22;6539;49.476;8.484;2023-06-10T14:19:32;30.80;66.40
12948;DHT22;6539;49.476;8.484;2023-06-10T14:22:01;30.90;63.20
12948;DHT22;6539;49.476;8.484;2023-06-10T14:24:28;30.70;63.40
12948;DHT22;6539;49.476;8.484;2023-06-10T14:26:59;30.70;63.40
12948;DHT22;6539;49.476;8.484;2023-06-10T14:29:25;30.60;63.50
12948;DHT22;6539;49.476;8.484;2023-06-10T14:31:54;30.60;63.80
12948;DHT22;6539;49.476;8.484;2023-06-10T14:34:20;30.70;64.00
12948;DHT22;6539;49.476;8.484;2023-06-10T14:36:48;30.70;64.00
12948;DHT22;6539;49.476;8.484;2023-06-10T14:39:14;30.70;64.00
12948;DHT22;6539;49.476;8.484;2023-06-10T14:41:40;30.70;64.50
12948;DHT22;6539;49.476;8.484;2023-06-10T14:44:06;30.80;64.40
12948;DHT22;6539;49.476;8.484;2023-06-10T14:46:34;30.90;64.20
12948;DHT22;6539;49.476;8.484;2023-06-10T14:49:02;30.90;64.00
12948;DHT22;6539;49.476;8.484;2023-06-10T14:51:34;31.10;63.40
12948;DHT22;6539;49.476;8.484;2023-06-10T14:56:26;31.10;62.10
12948;DHT22;6539;49.476;8.484;2023-06-10T14:58:54;31.00;64.50
12948;DHT22;6539;49.476;8.484;2023-06-10T15:01:20;31.10;60.50
12948;DHT22;6539;49.476;8.484;2023-06-10T15:03:48;31.00;60.90
12948;DHT22;6539;49.476;8.484;2023-06-10T15:06:16;30.90;60.10
12948;DHT22;6539;49.476;8.484;2023-06-10T15:08:46;31.00;67.20
12948;DHT22;6539;49.476;8.484;2023-06-10T15:11:16;30.90;61.70
12948;DHT22;6539;49.476;8.484;2023-06-10T15:13:43;30.90;61.40
12948;DHT22;6539;49.476;8.484;2023-06-10T15:16:09;31.00;62.10
12948;DHT22;6539;49.476;8.484;2023-06-10T15:18:37;30.90;63.20
12948;DHT22;6539;49.476;8.484;2023-06-10T15:21:03;31.00;62.00
12948;DHT22;6539;49.476;8.484;2023-06-10T15:23:28;30.90;61.20
12948;DHT22;6539;49.476;8.484;2023-06-10T15:25:57;30.90;61.20
12948;DHT22;6539;49.476;8.484;2023-06-10T15:28:27;30.90;64.70
12948;DHT22;6539;49.476;8.484;2023-06-10T15:30:55;30.90;61.80
12948;DHT22;6539;49.476;8.484;2023-06-10T15:33:21;31.00;61.80
12948;DHT22;6539;49.476;8.484;2023-06-10T15:35:49;31.00;64.70
12948;DHT22;6539;49.476;8.484;2023-06-10T15:38:18;31.00;61.60
12948;DHT22;6539;49.476;8.484;2023-06-10T15:40:44;31.10;61.40
12948;DHT22;6539;49.476;8.484;2023-06-10T15:43:10;31.10;61.20
12948;DHT22;6539;49.476;8.484;2023-06-10T15:45:36;31.10;61.20
12948;DHT22;6539;49.476;8.484;2023-06-10T15:48:01;31.10;61.30
12948;DHT22;6539;49.476;8.484;2023-06-10T15:50:29;31.10;61.60
12948;DHT22;6539;49.476;8.484;2023-06-10T15:52:57;30.90;62.00
12948;DHT22;6539;49.476;8.484;2023-06-10T15:55:23;30.60;65.30
12948;DHT22;6539;49.476;8.484;2023-06-10T15:57:56;30.50;66.00
12948;DHT22;6539;49.476;8.484;2023-06-10T16:00:25;30.60;62.40
12948;DHT22;6539;49.476;8.484;2023-06-10T16:02:50;30.50;62.50
12948;DHT22;6539;49.476;8.484;2023-06-10T16:05:16;30.40;61.80
12948;DHT22;6539;49.476;8.484;2023-06-10T16:07:42;30.40;62.70